KVBW

Details ICAO KVBW
Name Bridgewater Air Park
Region United States
Timezone America/New_York (UTC-5.0)
Plans Departing 0
Arriving 0
Stats Elevation 1,165 ft / 355 m (AMSL)
Location 38.366724° -78.960328°
Runways 1
Magnetic Variation 9.546° W
Sunrise 2017-12-13 12:25:54 UTC / 2017-12-13 07:25:54 Local
Sunset 2017-12-13 21:57:14 UTC / 2017-12-13 16:57:14 Local
Advertisement - Login to hide

Runways

ID Width Length Bearing (true) Bearing (mag) Surface Threshold Offset Overrun Length
15 59 ft / 18 m 2,747 ft / 837 m 142.88° 152.43° Asphalt 0 ft / 0 m 0 ft / 0 m
33 59 ft / 18 m 2,747 ft / 837 m 322.88° 332.43° Asphalt 0 ft / 0 m 0 ft / 0 m

Map

Weather


0- 5 10 15 20 25 30 35+ Temperature / ° C

Clouds and Precipitation
Forecast for 2017-12-14 06:00 UTC. Updated an hour ago

Ground ~20,000 ft ~40,000 ft Winds

METAR

KVBW 140215Z AUTO 15006KT 10SM BKN090 M01/M10 A2958 RMK AO2 T10141100

TAF

Not found
Warning: Do not use this data for real-world aviation or navigation. No guarantee of current accuracy is given.